createdAt,value
2022-10-19T00:00:07.888Z,84.26
2022-10-19T00:02:38.123Z,84.38
2022-10-19T00:05:05.989Z,84.35
2022-10-19T00:07:36.170Z,84.50
2022-10-19T00:10:05.009Z,84.20
2022-10-19T00:12:32.507Z,84.31
2022-10-19T00:14:59.935Z,84.06
2022-10-19T00:17:27.391Z,83.69
2022-10-19T00:20:00.360Z,84.09
2022-10-19T00:22:27.844Z,83.53
2022-10-19T00:24:58.138Z,83.31
2022-10-19T00:27:25.684Z,83.67
2022-10-19T00:29:58.782Z,83.23
2022-10-19T00:32:26.561Z,83.11
2022-10-19T00:34:53.989Z,83.23
2022-10-19T00:37:24.349Z,83.41
2022-10-19T00:42:23.947Z,83.64
2022-10-19T00:44:51.329Z,83.17
2022-10-19T00:47:21.208Z,82.87
2022-10-19T00:49:49.585Z,82.98
2022-10-19T00:52:19.942Z,82.90
2022-10-19T00:54:48.798Z,82.29
2022-10-19T00:57:16.515Z,82.82
2022-10-19T00:59:45.957Z,82.81
2022-10-19T01:02:13.321Z,82.61
2022-10-19T01:04:45.304Z,82.71
2022-10-19T01:07:12.891Z,81.90
2022-10-19T01:09:43.405Z,82.85
2022-10-19T01:12:33.045Z,82.25
2022-10-19T01:15:36.907Z,82.42
2022-10-19T01:18:15.592Z,82.83
2022-10-19T01:21:12.830Z,82.24
2022-10-19T01:24:03.362Z,82.89
2022-10-19T01:27:04.993Z,82.46
2022-10-19T01:30:02.149Z,82.84
2022-10-19T01:32:40.443Z,82.96
2022-10-19T01:35:32.086Z,82.73
2022-10-19T01:38:07.421Z,82.99
2022-10-19T01:40:45.132Z,83.52
2022-10-19T01:43:37.046Z,82.68
2022-10-19T01:46:23.996Z,83.01
2022-10-19T01:49:19.158Z,82.08
2022-10-19T01:51:53.555Z,83.02
2022-10-19T01:54:23.099Z,83.16
2022-10-19T01:56:51.798Z,83.38
2022-10-19T01:59:21.357Z,83.40
2022-10-19T02:01:52.621Z,83.19
2022-10-19T02:04:23.164Z,83.60
2022-10-19T02:06:54.545Z,83.67
2022-10-19T02:09:22.462Z,83.40
2022-10-19T02:11:56.915Z,83.68
2022-10-19T02:14:32.762Z,83.66
2022-10-19T02:17:05.400Z,83.41
2022-10-19T02:19:32.928Z,83.56
2022-10-19T02:22:03.257Z,83.56
2022-10-19T02:24:57.393Z,82.89
2022-10-19T02:27:36.620Z,83.01
2022-10-19T02:30:11.805Z,82.70
2022-10-19T02:36:06.782Z,82.81
2022-10-19T02:39:02.695Z,82.46
2022-10-19T02:42:07.452Z,82.09
2022-10-19T02:45:14.734Z,82.36
2022-10-19T02:48:04.111Z,82.32
2022-10-19T02:51:06.626Z,82.18
2022-10-19T02:53:54.608Z,82.31
2022-10-19T02:58:32.349Z,83.37
2022-10-19T02:59:50.451Z,83.09
2022-10-19T03:06:06.595Z,83.39
2022-10-19T03:09:43.956Z,82.86
2022-10-19T03:12:20.342Z,82.69
2022-10-19T03:15:02.042Z,82.94
2022-10-19T03:17:38.182Z,83.59
2022-10-19T03:21:50.322Z,83.42
2022-10-19T03:23:11.707Z,83.23
2022-10-19T03:25:41.518Z,83.57
2022-10-19T03:28:11.775Z,83.23
2022-10-19T03:30:44.585Z,82.84
2022-10-19T03:33:12.039Z,82.99
2022-10-19T03:35:42.080Z,82.85
2022-10-19T03:38:09.648Z,82.98
2022-10-19T03:41:09.251Z,83.02
2022-10-19T03:43:36.823Z,83.10
2022-10-19T03:46:19.253Z,82.96
2022-10-19T03:49:23.481Z,82.72
2022-10-19T03:51:52.417Z,83.04
2022-10-19T03:54:27.339Z,82.70
2022-10-19T03:56:55.046Z,82.66
2022-10-19T03:59:24.671Z,82.61
2022-10-19T04:01:52.088Z,82.55
2022-10-19T04:04:23.367Z,82.92
2022-10-19T04:06:53.486Z,82.76
2022-10-19T04:09:22.776Z,83.28
2022-10-19T04:11:55.458Z,83.76
2022-10-19T04:14:56.186Z,83.27
2022-10-19T04:17:26.807Z,83.79
2022-10-19T04:20:05.556Z,83.68
2022-10-19T04:22:35.437Z,83.71
2022-10-19T04:25:02.835Z,83.73
2022-10-19T04:27:30.357Z,83.75
2022-10-19T04:30:02.928Z,83.92
2022-10-19T04:32:32.450Z,83.84
2022-10-19T04:34:59.912Z,84.43
2022-10-19T04:37:31.004Z,84.44
2022-10-19T04:40:01.626Z,84.10
2022-10-19T04:42:32.128Z,84.56
2022-10-19T04:45:06.578Z,84.59
2022-10-19T04:47:33.899Z,84.81
2022-10-19T04:50:02.326Z,85.29
2022-10-19T04:52:36.090Z,85.78
2022-10-19T04:55:08.694Z,85.59
2022-10-19T04:57:36.545Z,85.58
2022-10-19T05:00:17.550Z,85.51
2022-10-19T05:02:48.188Z,85.82
2022-10-19T05:05:28.542Z,85.56
2022-10-19T05:08:03.002Z,86.61
2022-10-19T05:10:33.992Z,86.74
2022-10-19T05:13:04.858Z,85.98
2022-10-19T05:15:35.047Z,85.61
2022-10-19T05:18:22.465Z,86.12
2022-10-19T05:22:11.149Z,86.54
2022-10-19T05:24:44.939Z,85.93
2022-10-19T05:27:55.390Z,85.83
2022-10-19T05:30:26.119Z,86.35
2022-10-19T05:32:59.539Z,85.55
2022-10-19T05:35:30.138Z,85.51
2022-10-19T05:38:20.057Z,85.76
2022-10-19T05:40:54.406Z,85.44
2022-10-19T05:43:27.229Z,85.07
2022-10-19T05:45:57.281Z,85.30
2022-10-19T05:48:33.988Z,85.03
2022-10-19T05:51:55.775Z,83.76
2022-10-19T05:54:23.801Z,84.70
2022-10-19T05:57:06.682Z,84.84
2022-10-19T06:00:08.261Z,85.23
2022-10-19T06:03:15.796Z,84.85
2022-10-19T06:05:49.717Z,85.42
2022-10-19T06:08:30.849Z,85.23
2022-10-19T06:11:23.378Z,85.38
2022-10-19T06:14:06.697Z,85.00
2022-10-19T06:17:12.828Z,85.28
2022-10-19T06:20:14.827Z,85.93
2022-10-19T06:22:58.277Z,86.19
2022-10-19T06:25:53.555Z,86.23
2022-10-19T06:28:51.208Z,86.31
2022-10-19T06:31:42.912Z,85.90
2022-10-19T06:34:21.950Z,86.23
2022-10-19T06:36:58.427Z,87.39
2022-10-19T06:40:10.202Z,87.81
2022-10-19T06:43:02.828Z,88.30
2022-10-19T06:46:45.337Z,89.16
2022-10-19T06:49:05.243Z,89.92
2022-10-19T06:51:52.497Z,89.39
2022-10-19T06:54:45.620Z,90.24
2022-10-19T06:57:30.828Z,91.06
2022-10-19T07:00:05.330Z,92.17
2022-10-19T07:02:36.169Z,91.01
2022-10-19T07:05:11.226Z,92.09
2022-10-19T07:07:41.973Z,92.22
2022-10-19T07:10:25.084Z,93.32
2022-10-19T07:14:01.447Z,92.14
2022-10-19T07:16:23.173Z,94.61
2022-10-19T07:18:58.236Z,93.02
2022-10-19T07:21:50.127Z,93.80
2022-10-19T07:24:21.497Z,93.23
2022-10-19T07:26:55.558Z,93.37
2022-10-19T07:30:23.727Z,95.05
2022-10-19T07:33:12.694Z,93.74
2022-10-19T07:35:41.589Z,94.14
2022-10-19T07:38:23.447Z,94.06
2022-10-19T07:41:01.130Z,94.42
2022-10-19T07:43:41.614Z,95.15
2022-10-19T07:46:13.525Z,94.53
2022-10-19T07:48:51.819Z,94.75
2022-10-19T07:54:00.273Z,94.63
2022-10-19T07:56:40.223Z,94.29
2022-10-19T07:59:55.394Z,94.53
2022-10-19T08:02:30.822Z,94.40
2022-10-19T08:07:15.854Z,94.45
2022-10-19T08:09:47.164Z,95.14
2022-10-19T08:12:43.493Z,94.16
2022-10-19T08:19:26.162Z,93.67
2022-10-19T08:29:40.651Z,93.01
2022-10-19T08:33:01.277Z,93.84
2022-10-19T08:43:33.377Z,92.91
2022-10-19T08:46:40.067Z,94.06
2022-10-19T08:49:38.414Z,93.72
2022-10-19T08:55:55.285Z,92.85
2022-10-19T08:59:15.994Z,93.10
2022-10-19T09:02:07.969Z,93.12
2022-10-19T09:05:09.645Z,92.49
2022-10-19T09:08:06.774Z,93.60
2022-10-19T09:16:49.149Z,92.93
2022-10-19T09:20:15.416Z,93.07
2022-10-19T09:51:13.700Z,93.25
2022-10-19T09:58:41.365Z,93.30
2022-10-19T10:05:10.121Z,92.61
2022-10-19T10:17:19.523Z,90.90
2022-10-19T10:21:50.601Z,91.10
2022-10-19T10:28:28.217Z,91.15
2022-10-19T10:36:25.542Z,92.20
2022-10-19T10:53:08.582Z,92.62
2022-10-19T10:55:42.704Z,92.72
2022-10-19T11:12:03.533Z,91.57
2022-10-19T11:27:09.364Z,86.86
2022-10-19T11:59:49.568Z,82.32
2022-10-19T12:03:01.440Z,85.16
2022-10-19T12:11:07.380Z,84.99
2022-10-19T12:14:33.388Z,84.88
2022-10-19T12:18:12.213Z,85.53
2022-10-19T12:42:33.622Z,84.64
2022-10-19T12:52:09.897Z,84.94
2022-10-19T12:57:37.353Z,83.72
2022-10-19T13:04:59.932Z,84.80
2022-10-19T13:13:25.412Z,83.30
2022-10-19T13:19:57.739Z,82.75
2022-10-19T13:46:16.948Z,83.20
2022-10-19T13:49:59.745Z,84.35
2022-10-19T13:53:23.910Z,83.66
2022-10-19T13:57:29.618Z,84.66
2022-10-19T14:02:22.548Z,84.46
2022-10-19T14:04:25.814Z,83.84
2022-10-19T14:13:02.044Z,82.55
2022-10-19T14:20:15.887Z,83.24
2022-10-19T14:27:20.568Z,83.75
2022-10-19T14:30:46.208Z,83.54
2022-10-19T14:33:26.858Z,83.96
2022-10-19T14:36:53.522Z,83.17
2022-10-19T14:39:40.032Z,83.11
2022-10-19T14:43:22.189Z,83.43
2022-10-19T14:50:29.633Z,83.16
2022-10-19T14:53:20.860Z,82.87
2022-10-19T14:56:06.210Z,83.23
2022-10-19T14:58:57.060Z,83.27
2022-10-19T15:02:03.643Z,83.97
2022-10-19T15:04:47.873Z,83.60
2022-10-19T15:08:05.439Z,83.85
2022-10-19T15:10:47.106Z,83.64
2022-10-19T15:14:02.680Z,84.82
2022-10-19T15:17:10.263Z,84.75
2022-10-19T15:19:42.031Z,84.44
2022-10-19T15:25:53.278Z,84.75
2022-10-19T15:29:32.473Z,85.08
2022-10-19T15:36:46.553Z,86.17
2022-10-19T15:39:42.122Z,85.60
2022-10-19T15:42:49.937Z,85.43
2022-10-19T15:46:26.540Z,85.35
2022-10-19T15:49:15.478Z,84.83
2022-10-19T15:51:49.351Z,85.36
2022-10-19T15:54:19.446Z,84.78
2022-10-19T15:57:06.405Z,84.86
2022-10-19T15:59:48.858Z,85.32
2022-10-19T16:02:33.243Z,84.80
2022-10-19T16:05:42.269Z,83.83
2022-10-19T16:08:30.273Z,84.62
2022-10-19T16:11:41.739Z,84.65
2022-10-19T16:18:40.746Z,84.58
2022-10-19T16:20:58.659Z,85.24
2022-10-19T16:23:48.130Z,85.19
2022-10-19T16:26:39.849Z,84.09
2022-10-19T16:29:45.966Z,83.80
2022-10-19T16:32:24.878Z,84.76
2022-10-19T16:34:56.408Z,84.58
2022-10-19T16:37:29.690Z,84.28
2022-10-19T16:40:21.444Z,84.89
2022-10-19T16:43:02.158Z,84.32
2022-10-19T16:45:53.090Z,84.13
2022-10-19T16:48:26.128Z,84.38
2022-10-19T16:51:08.134Z,83.18
2022-10-19T16:53:47.935Z,83.55
2022-10-19T16:56:15.400Z,83.53
2022-10-19T16:58:42.822Z,84.56
2022-10-19T17:01:16.435Z,84.41
2022-10-19T17:03:51.058Z,84.34
2022-10-19T17:06:31.961Z,84.96
2022-10-19T17:12:00.657Z,86.58
2022-10-19T17:14:28.096Z,86.94
2022-10-19T17:16:55.546Z,86.65
2022-10-19T17:19:23.636Z,87.56
2022-10-19T17:21:57.783Z,87.86
2022-10-19T17:24:26.112Z,87.36
2022-10-19T17:26:54.044Z,88.00
2022-10-19T17:29:22.807Z,86.97
2022-10-19T17:31:51.872Z,86.82
2022-10-19T17:34:22.284Z,86.59
2022-10-19T17:36:49.534Z,86.83
2022-10-19T17:39:20.885Z,86.96
2022-10-19T17:41:52.024Z,86.72
2022-10-19T17:44:23.593Z,86.32
2022-10-19T17:46:54.639Z,86.60
2022-10-19T17:49:23.336Z,86.27
2022-10-19T17:51:53.548Z,86.18
2022-10-19T17:54:24.027Z,85.80
2022-10-19T17:56:51.519Z,86.05
2022-10-19T17:59:30.106Z,85.45
2022-10-19T18:02:10.747Z,84.86
2022-10-19T18:04:40.821Z,86.53
2022-10-19T18:07:08.400Z,86.30
2022-10-19T18:09:35.981Z,86.04
2022-10-19T18:12:04.852Z,86.13
2022-10-19T18:14:45.528Z,85.32
2022-10-19T18:17:14.891Z,85.70
2022-10-19T18:19:45.901Z,85.81
2022-10-19T18:22:23.900Z,86.45
2022-10-19T18:24:51.502Z,85.93
2022-10-19T18:27:20.757Z,86.42
2022-10-19T18:29:48.561Z,85.98
2022-10-19T18:32:18.966Z,85.88
2022-10-19T18:34:46.231Z,85.56
2022-10-19T18:37:14.498Z,86.07
2022-10-19T18:40:10.684Z,85.94
2022-10-19T18:42:42.228Z,85.47
2022-10-19T18:45:19.612Z,86.18
2022-10-19T18:47:46.882Z,86.85
2022-10-19T18:50:17.976Z,86.29
2022-10-19T18:52:48.064Z,86.87
2022-10-19T18:55:17.113Z,86.92
2022-10-19T18:57:44.710Z,87.71
2022-10-19T19:00:18.588Z,86.88
2022-10-19T19:02:53.650Z,87.29
2022-10-19T19:05:22.238Z,86.43
2022-10-19T19:07:50.175Z,87.31
2022-10-19T19:10:19.742Z,87.36
2022-10-19T19:12:50.276Z,86.65
2022-10-19T19:15:18.814Z,87.61
2022-10-19T19:17:45.960Z,86.96
2022-10-19T19:20:13.281Z,87.32
2022-10-19T19:22:41.185Z,87.38
2022-10-19T19:25:09.455Z,87.77
2022-10-19T19:30:06.770Z,87.49
2022-10-19T19:32:35.195Z,87.27
2022-10-19T19:35:02.711Z,87.24
2022-10-19T19:37:31.114Z,87.86
2022-10-19T19:39:59.803Z,87.20
2022-10-19T19:42:28.009Z,87.59
2022-10-19T19:44:57.454Z,87.16
2022-10-19T19:47:24.817Z,86.95
2022-10-19T19:49:52.391Z,86.65
2022-10-19T19:52:19.656Z,86.04
2022-10-19T19:54:46.808Z,86.23
2022-10-19T19:57:14.274Z,86.39
2022-10-19T20:00:10.658Z,84.68
2022-10-19T20:02:44.148Z,85.44
2022-10-19T20:05:11.717Z,85.81
2022-10-19T20:07:38.918Z,84.91
2022-10-19T20:10:09.725Z,85.30
2022-10-19T20:12:36.918Z,84.86
2022-10-19T20:15:05.012Z,84.02
2022-10-19T20:17:32.577Z,84.92
2022-10-19T20:20:01.109Z,83.78
2022-10-19T20:22:28.488Z,84.22
2022-10-19T20:24:55.707Z,84.18
2022-10-19T20:27:22.944Z,83.53
2022-10-19T20:29:58.785Z,83.60
2022-10-19T20:32:27.324Z,83.75
2022-10-19T20:34:55.104Z,82.48
2022-10-19T20:37:22.678Z,82.51
2022-10-19T20:39:55.887Z,81.84
2022-10-19T20:42:23.237Z,82.69
2022-10-19T20:44:50.833Z,82.03
2022-10-19T20:47:17.947Z,82.88
2022-10-19T20:49:50.889Z,82.45
2022-10-19T20:52:18.168Z,82.22
2022-10-19T20:54:45.436Z,82.28
2022-10-19T20:57:12.820Z,81.63
2022-10-19T20:59:40.382Z,80.78
2022-10-19T21:02:07.640Z,80.78
2022-10-19T21:04:38.121Z,81.90
2022-10-19T21:07:05.570Z,81.14
2022-10-19T21:09:33.058Z,81.18
2022-10-19T21:12:01.701Z,81.08
2022-10-19T21:14:30.281Z,80.93
2022-10-19T21:16:58.901Z,81.64
2022-10-19T21:19:30.725Z,81.61
2022-10-19T21:22:06.204Z,81.10
2022-10-19T21:24:36.177Z,81.80
2022-10-19T21:27:06.830Z,81.43
2022-10-19T21:29:36.140Z,81.93
2022-10-19T21:32:03.796Z,81.66
2022-10-19T21:34:31.779Z,81.77
2022-10-19T21:36:59.814Z,81.72
2022-10-19T21:39:28.103Z,80.71
2022-10-19T21:41:56.470Z,80.87
2022-10-19T21:44:26.140Z,80.49
2022-10-19T21:46:53.480Z,80.89
2022-10-19T21:49:21.031Z,81.02
2022-10-19T21:51:56.647Z,81.04
2022-10-19T21:54:25.470Z,80.26
2022-10-19T21:56:53.569Z,80.33
2022-10-19T21:59:20.821Z,79.97
2022-10-19T22:01:48.506Z,80.35
2022-10-19T22:04:17.681Z,80.26
2022-10-19T22:06:45.277Z,80.12
2022-10-19T22:09:17.230Z,79.97
2022-10-19T22:11:49.197Z,80.67
2022-10-19T22:14:17.467Z,80.59
2022-10-19T22:16:45.157Z,79.96
2022-10-19T22:19:13.836Z,79.79
2022-10-19T22:21:41.704Z,80.01
2022-10-19T22:24:13.130Z,79.81
2022-10-19T22:26:46.492Z,79.31
2022-10-19T22:29:14.439Z,80.41
2022-10-19T22:31:43.430Z,79.25
2022-10-19T22:34:14.790Z,79.26
2022-10-19T22:36:43.018Z,79.18
2022-10-19T22:39:10.591Z,80.36
2022-10-19T22:41:37.956Z,79.50
2022-10-19T22:44:06.596Z,79.94
2022-10-19T22:46:36.417Z,79.28
2022-10-19T22:49:05.012Z,79.82
2022-10-19T22:51:32.979Z,79.50
2022-10-19T22:54:00.704Z,79.64
2022-10-19T22:56:31.109Z,78.61
2022-10-19T22:59:03.447Z,79.50
2022-10-19T23:01:31.061Z,79.37
2022-10-19T23:03:58.960Z,79.33
2022-10-19T23:06:26.744Z,78.90
2022-10-19T23:08:54.828Z,78.89
2022-10-19T23:11:23.567Z,78.89
2022-10-19T23:13:50.927Z,79.10
2022-10-19T23:16:19.489Z,78.72
2022-10-19T23:18:48.126Z,78.50
2022-10-19T23:21:18.048Z,78.76
2022-10-19T23:23:46.117Z,78.82
2022-10-19T23:26:16.132Z,79.05
2022-10-19T23:28:46.051Z,78.61
2022-10-19T23:31:18.005Z,78.24
2022-10-19T23:33:46.820Z,77.71
2022-10-19T23:36:17.815Z,78.54
2022-10-19T23:38:46.170Z,78.97
2022-10-19T23:41:14.057Z,78.36
2022-10-19T23:43:41.613Z,78.38
2022-10-19T23:46:09.490Z,78.45
2022-10-19T23:48:37.362Z,78.26
2022-10-19T23:51:54.421Z,76.34
2022-10-19T23:54:22.025Z,78.13
2022-10-19T23:56:49.211Z,77.75
2022-10-19T23:59:16.462Z,78.53
